Terminal Aerodrome Forecast
Issued by NWS Topeka, KS

Home | Current Version | Previous Version | Graphics & Text | Print | Product List | Glossary On
Versions: 1 2 3 4 5 6 7 8 9 10 11 12 13 14 15 16 17
000
FTUS43 KTOP 232320
TAFTOP
TAF
KTOP 232320Z 2400/2424 16006KT P6SM BKN150
     FM240500 19006KT P6SM BKN150
     FM241400 26007KT P6SM SCT150 PROB30 2420/2424 6SM -TSRA
      SCT070CB BKN150=

USA.gov is the U.S. government's official web portal to all federal, state and local government web resources and services.